Time;durP1;ratioP1;P1;durP2;ratioP2;P2;SDS_P1;SDS_P2;PMS_P1;PMS_P2;Temp;Humidity;BMP_temperature;BMP_pressure;BME280_temperature;BME280_humidity;BME280_pressure;Samples;Min_cycle;Max_cycle;Signal;HPM_P1;HPM_P2
2021/04/11 00:02:13;;;;;;;4.32;1.27;;;;;;;11.86;48.55;101871.09;5070839;28;20677;-71
2021/04/11 00:04:40;;;;;;;8.57;1.33;;;;;;;11.79;49.05;101866.47;5072881;28;20044;-71
2021/04/11 00:07:08;;;;;;;3.30;1.55;;;;;;;11.77;49.03;101861.97;5069755;28;20107;-71
2021/04/11 00:09:35;;;;;;;4.47;1.27;;;;;;;11.74;48.65;101867.19;5059258;28;20037;-71
2021/04/11 00:12:02;;;;;;;4.53;1.23;;;;;;;11.76;48.36;101866.38;5052083;28;20043;-71
2021/04/11 00:14:29;;;;;;;6.85;1.30;;;;;;;11.80;47.88;101870.00;5060135;28;20044;-71
2021/04/11 00:16:56;;;;;;;5.65;1.65;;;;;;;11.74;47.95;101860.16;5071065;28;20040;-71
2021/04/11 00:19:23;;;;;;;4.13;1.38;;;;;;;11.70;48.27;101860.88;5053604;28;20029;-71
2021/04/11 00:21:50;;;;;;;5.88;1.65;;;;;;;11.69;48.46;101847.59;5051479;28;20456;-71
2021/04/11 00:24:19;;;;;;;4.78;1.55;;;;;;;11.69;48.08;101851.13;5072638;28;20131;-71
2021/04/11 00:26:46;;;;;;;5.10;1.50;;;;;;;11.66;48.66;101845.78;5050904;28;20519;-71
2021/04/11 00:29:13;;;;;;;5.25;1.42;;;;;;;11.65;48.48;101846.63;5067184;28;20120;-71
2021/04/11 00:31:40;;;;;;;2.88;1.40;;;;;;;11.67;48.75;101849.31;5070366;28;20048;-71
2021/04/11 00:34:07;;;;;;;2.67;1.35;;;;;;;11.64;48.80;101846.56;5069565;28;20526;-71
2021/04/11 00:36:34;;;;;;;4.30;1.38;;;;;;;11.62;49.17;101841.22;5063254;28;20495;-71
2021/04/11 00:39:01;;;;;;;4.82;1.42;;;;;;;11.65;49.25;101856.31;5036920;28;20056;-71
2021/04/11 00:41:32;;;;;;;7.45;1.40;;;;;;;11.65;49.22;101849.28;5060948;28;20090;-71
2021/04/11 00:44:02;;;;;;;2.63;1.23;;;;;;;11.63;49.34;101848.31;5049882;28;20470;-71
2021/04/11 00:46:40;;;;;;;4.63;1.42;;;;;;;11.63;49.67;101844.78;5053997;28;20045;-72
2021/04/11 00:49:11;;;;;;;5.00;1.48;;;;;;;11.55;50.00;101836.66;5070589;28;20042;-71
2021/04/11 00:51:38;;;;;;;7.07;1.63;;;;;;;11.61;50.10;101838.56;5063327;28;20037;-71
2021/04/11 00:54:07;;;;;;;3.78;1.48;;;;;;;11.66;50.02;101845.78;5048278;28;20053;-71
2021/04/11 00:56:38;;;;;;;4.13;1.77;;;;;;;11.62;50.33;101843.88;5050055;28;20040;-71
2021/04/11 00:59:05;;;;;;;6.57;1.67;;;;;;;11.61;50.60;101835.91;5050518;28;20064;-71
2021/04/11 01:01:32;;;;;;;3.53;1.55;;;;;;;11.62;50.73;101835.06;5049905;28;20045;-71
2021/04/11 01:04:00;;;;;;;4.35;1.92;;;;;;;11.59;50.75;101834.13;5050844;28;20076;-71
2021/04/11 01:06:31;;;;;;;6.93;1.98;;;;;;;11.57;50.44;101825.25;5049338;28;20090;-71
2021/04/11 01:08:59;;;;;;;3.40;1.70;;;;;;;11.56;50.26;101812.88;5051260;28;20569;-71
2021/04/11 01:11:30;;;;;;;9.10;1.77;;;;;;;11.58;50.24;101824.41;5049581;28;20399;-72
2021/04/11 01:14:02;;;;;;;2.35;1.35;;;;;;;11.65;49.94;101821.91;5048900;28;20155;-71
2021/04/11 01:16:31;;;;;;;3.78;1.40;;;;;;;11.65;49.85;101819.28;5051622;28;20040;-71
2021/04/11 01:18:58;;;;;;;5.57;1.75;;;;;;;11.61;49.93;101820.94;5046826;28;20037;-71
2021/04/11 01:21:33;;;;;;;6.90;1.83;;;;;;;11.62;49.59;101824.50;5047851;28;20087;-71
2021/04/11 01:24:12;;;;;;;5.72;1.55;;;;;;;11.64;49.30;101826.31;5051786;28;20076;-71
2021/04/11 01:26:41;;;;;;;3.83;1.10;;;;;;;11.64;49.20;101826.31;5050862;28;20047;-71
2021/04/11 01:29:10;;;;;;;4.88;1.63;;;;;;;11.64;49.16;101817.47;5049821;28;20040;-71
2021/04/11 01:31:38;;;;;;;3.08;1.30;;;;;;;11.62;49.06;101822.72;5050323;28;20037;-71
2021/04/11 01:34:07;;;;;;;8.65;1.65;;;;;;;11.62;48.82;101820.06;5049921;28;20053;-71
2021/04/11 01:36:37;;;;;;;4.10;1.42;;;;;;;11.58;48.90;101813.81;5044085;28;20037;-71
2021/04/11 01:39:10;;;;;;;7.30;1.52;;;;;;;11.57;49.07;101806.72;5050094;28;20390;-71
2021/04/11 01:41:41;;;;;;;5.45;1.50;;;;;;;11.53;48.90;101801.31;5049326;28;20055;-71
2021/04/11 01:44:11;;;;;;;4.68;1.25;;;;;;;11.51;48.86;101814.50;5050063;28;20033;-70
2021/04/11 01:46:38;;;;;;;5.25;1.52;;;;;;;11.47;49.00;101812.63;5051079;28;20045;-71
2021/04/11 01:49:06;;;;;;;4.35;1.60;;;;;;;11.48;49.22;101818.81;5048639;28;20037;-71
2021/04/11 01:51:37;;;;;;;3.65;1.50;;;;;;;11.51;49.43;101814.50;5047593;28;20095;-71
2021/04/11 01:54:08;;;;;;;9.70;1.60;;;;;;;11.50;49.39;101817.09;5052913;28;20055;-71
2021/04/11 01:56:35;;;;;;;4.88;1.52;;;;;;;11.47;49.55;101814.38;5069738;28;20142;-71
2021/04/11 01:59:09;;;;;;;8.63;2.40;;;;;;;11.49;49.31;101805.59;5071096;28;20119;-71
2021/04/11 02:01:37;;;;;;;8.50;2.00;;;;;;;11.48;49.27;101802.94;5067968;28;20127;-71
2021/04/11 02:04:06;;;;;;;6.05;1.67;;;;;;;11.54;48.98;101809.31;5070476;28;20089;-71
2021/04/11 02:06:37;;;;;;;4.40;1.42;;;;;;;11.63;48.86;101810.38;5051984;28;20132;-71
2021/04/11 02:09:08;;;;;;;11.07;1.95;;;;;;;11.67;49.19;101814.94;5053138;28;20578;-71
2021/04/11 02:11:36;;;;;;;4.70;1.50;;;;;;;11.70;49.56;101813.25;5067975;28;20029;-71
2021/04/11 02:14:03;;;;;;;10.43;1.67;;;;;;;11.77;50.01;101806.41;5070585;28;20040;-71
2021/04/11 02:16:33;;;;;;;6.55;1.80;;;;;;;11.79;50.50;101797.69;5069505;28;20041;-71
2021/04/11 02:19:01;;;;;;;6.97;1.80;;;;;;;11.82;50.40;101800.41;5067825;28;20044;-71
2021/04/11 02:21:29;;;;;;;5.53;1.85;;;;;;;11.86;49.89;101806.69;5066269;28;20049;-71
2021/04/11 02:23:56;;;;;;;6.35;2.03;;;;;;;11.83;49.80;101818.06;5068762;28;20039;-71
2021/04/11 02:26:24;;;;;;;4.65;1.30;;;;;;;11.80;50.09;101807.41;5069454;28;20491;-71
2021/04/11 02:28:52;;;;;;;4.22;1.67;;;;;;;11.78;49.96;101803.81;5069256;28;20036;-71
2021/04/11 02:31:20;;;;;;;4.78;1.48;;;;;;;11.78;49.86;101808.22;5067998;28;20428;-71
2021/04/11 02:33:56;;;;;;;6.18;1.45;;;;;;;11.75;49.90;101794.91;5070809;28;20081;-71
2021/04/11 02:36:27;;;;;;;6.53;2.05;;;;;;;11.76;49.91;101799.34;5069059;28;20383;-71
2021/04/11 02:38:56;;;;;;;2.63;1.60;;;;;;;11.73;49.92;101793.94;5069051;28;20182;-71
2021/04/11 02:41:25;;;;;;;4.97;1.50;;;;;;;11.72;50.07;101789.50;5068402;28;20095;-71
2021/04/11 02:43:54;;;;;;;7.25;1.90;;;;;;;11.69;50.42;101797.34;5070253;28;20093;-71
2021/04/11 02:46:21;;;;;;;5.45;1.67;;;;;;;11.63;50.60;101803.34;5067959;28;20421;-71
2021/04/11 02:48:53;;;;;;;3.38;1.65;;;;;;;11.61;50.79;101805.09;5066702;28;20047;-71
2021/04/11 02:51:23;;;;;;;4.85;1.40;;;;;;;11.66;50.38;101811.38;5064732;28;20044;-71
2021/04/11 02:53:53;;;;;;;5.70;1.83;;;;;;;11.69;50.61;101808.81;5064069;28;20049;-71
2021/04/11 02:56:20;;;;;;;4.38;1.73;;;;;;;11.69;50.90;101807.91;5036803;28;20043;-71
2021/04/11 02:58:48;;;;;;;2.78;1.45;;;;;;;11.69;50.94;101811.47;5060889;28;20040;-71
2021/04/11 03:01:19;;;;;;;7.35;2.25;;;;;;;11.68;50.91;101811.44;5070115;28;20059;-72
2021/04/11 03:03:47;;;;;;;6.72;1.70;;;;;;;11.66;51.12;101815.78;5068708;28;20116;-71
2021/04/11 03:06:18;;;;;;;4.63;1.60;;;;;;;11.64;51.09;101830.69;5051019;28;20402;-71
2021/04/11 03:08:50;;;;;;;5.88;1.90;;;;;;;11.62;51.18;101816.56;5066948;28;20080;-71
2021/04/11 03:11:24;;;;;;;3.72;1.52;;;;;;;11.59;50.97;101820.00;5050195;28;20041;-71
2021/04/11 03:13:51;;;;;;;;;;;;;;;11.56;50.63;101825.19;5066961;28;20127;-71
2021/04/11 03:16:19;;;;;;;4.25;1.40;;;;;;;11.51;50.11;101822.44;5068413;28;19921;-71
2021/04/11 03:18:46;;;;;;;6.78;1.80;;;;;;;11.51;49.06;101810.94;5054124;28;20051;-71
2021/04/11 03:21:13;;;;;;;5.15;1.95;;;;;;;11.50;49.03;101827.66;5053833;28;20045;-71
2021/04/11 03:23:41;;;;;;;8.70;2.03;;;;;;;11.50;49.18;101827.66;5061311;28;20120;-71
2021/04/11 03:26:17;;;;;;;5.72;1.90;;;;;;;11.48;49.41;101822.34;5052373;28;20045;-71
2021/04/11 03:28:48;;;;;;;6.50;1.73;;;;;;;11.50;49.70;101825.91;5034722;28;20403;-71
2021/04/11 03:31:20;;;;;;;4.35;1.60;;;;;;;11.52;49.92;101834.78;5067240;28;20058;-71
2021/04/11 03:33:51;;;;;;;5.30;1.63;;;;;;;11.51;49.77;101816.25;5053438;28;20513;-71
2021/04/11 03:36:20;;;;;;;3.83;1.70;;;;;;;11.61;49.32;101818.31;5064592;28;20045;-71
2021/04/11 03:38:49;;;;;;;2.70;1.35;;;;;;;11.65;49.18;101814.88;5066338;28;20051;-71
2021/04/11 03:41:19;;;;;;;3.45;1.70;;;;;;;11.64;49.12;101823.66;5073172;28;20047;-71
2021/04/11 03:43:49;;;;;;;3.55;1.38;;;;;;;11.65;49.17;101821.91;5070690;28;20036;-71
2021/04/11 03:46:21;;;;;;;7.03;2.10;;;;;;;11.62;49.37;101822.72;5062980;28;20085;-71
2021/04/11 03:48:56;;;;;;;5.05;2.05;;;;;;;11.62;49.30;101824.50;5052478;28;20100;-71
2021/04/11 03:51:26;;;;;;;4.63;1.70;;;;;;;11.64;49.42;101826.31;5034812;28;20034;-70
2021/04/11 03:53:57;;;;;;;5.95;1.50;;;;;;;11.63;49.54;101835.09;5061299;28;20445;-71
2021/04/11 03:56:28;;;;;;;4.70;1.83;;;;;;;11.63;49.48;101836.84;5031776;28;20119;-71
2021/04/11 03:59:00;;;;;;;3.90;1.75;;;;;;;11.63;49.97;101840.38;5071378;28;20041;-71
2021/04/11 04:01:31;;;;;;;5.38;1.80;;;;;;;11.58;50.04;101829.69;5051962;28;20041;-71
2021/04/11 04:04:03;;;;;;;5.78;1.50;;;;;;;11.58;50.40;101839.38;5063507;28;20119;-71
2021/04/11 04:06:33;;;;;;;3.03;1.50;;;;;;;11.62;50.73;101838.59;5068751;28;20831;-72
2021/04/11 04:09:00;;;;;;;4.30;2.10;;;;;;;11.72;50.85;101843.31;5054515;28;20051;-71
2021/04/11 04:12:07;;;;;;;8.43;3.42;;;;;;;11.80;50.56;101848.84;5053213;28;20052;-71
2021/04/11 04:14:48;;;;;;;5.97;2.45;;;;;;;11.88;50.40;101853.47;5051983;28;20037;-71
2021/04/11 04:17:25;;;;;;;5.97;2.20;;;;;;;12.04;50.54;101854.81;5038650;28;20107;-71
2021/04/11 04:20:02;;;;;;;7.93;3.22;;;;;;;12.13;50.52;101860.34;5059478;28;20033;-71
2021/04/11 04:22:53;;;;;;;7.55;2.10;;;;;;;12.22;50.51;101865.88;5054944;28;20039;-71
2021/04/11 04:25:42;;;;;;;7.63;2.22;;;;;;;12.29;50.49;101859.00;5069766;28;20086;-71
2021/04/11 04:28:22;;;;;;;4.07;1.70;;;;;;;12.38;50.48;101862.78;5068315;28;20049;-71
2021/04/11 04:31:02;;;;;;;7.35;2.38;;;;;;;12.48;50.65;101860.34;5065871;28;20488;-72
2021/04/11 04:33:55;;;;;;;7.43;2.42;;;;;;;12.50;50.61;101864.84;5063741;28;20040;-71
2021/04/11 04:36:40;;;;;;;5.93;2.30;;;;;;;12.53;50.75;101861.41;5066885;28;20063;-71
2021/04/11 04:39:26;;;;;;;3.80;1.70;;;;;;;12.61;50.68;101863.34;5068082;28;20055;-71
2021/04/11 04:42:08;;;;;;;9.88;2.38;;;;;;;12.67;50.52;101855.56;5044548;28;20044;-71
2021/04/11 04:44:49;;;;;;;3.05;1.73;;;;;;;12.71;50.68;101861.84;5067659;28;20037;-71
2021/04/11 04:47:22;;;;;;;3.35;1.65;;;;;;;12.73;50.73;101858.34;5052029;28;20048;-71
2021/04/11 04:49:57;;;;;;;5.35;1.90;;;;;;;12.76;50.96;101862.84;5055276;28;20029;-71
2021/04/11 04:52:28;;;;;;;2.67;1.40;;;;;;;12.83;51.01;101859.50;5060152;28;20601;-72
2021/04/11 04:55:01;;;;;;;3.47;1.58;;;;;;;12.90;50.91;101872.03;5065583;28;20091;-72
2021/04/11 04:57:34;;;;;;;4.00;1.50;;;;;;;13.06;50.69;101860.03;5069365;28;20433;-71
2021/04/11 05:00:09;;;;;;;6.93;1.42;;;;;;;13.19;50.60;101858.59;5065156;28;20033;-71
2021/04/11 05:02:42;;;;;;;3.22;1.40;;;;;;;13.33;50.27;101863.31;5071577;28;20128;-71
2021/04/11 05:05:13;;;;;;;6.78;1.40;;;;;;;13.42;50.14;101863.53;5064636;28;20036;-71
2021/04/11 05:07:47;;;;;;;5.43;1.40;;;;;;;13.52;50.25;101856.69;5069527;28;20041;-72
2021/04/11 05:10:16;;;;;;;;;;;;;;;13.49;50.07;101852.19;5071948;28;20432;-72
2021/04/11 05:12:50;;;;;;;7.75;2.50;;;;;;;13.44;49.93;101850.31;5063145;28;19921;-71
2021/04/11 05:15:21;;;;;;;5.82;1.73;;;;;;;13.49;49.63;101841.59;5032674;28;20128;-72
2021/04/11 05:17:55;;;;;;;2.72;1.50;;;;;;;13.69;49.05;101843.75;5050536;28;20029;-71
2021/04/11 05:20:26;;;;;;;4.18;1.63;;;;;;;13.93;48.42;101846.88;5051349;28;20098;-72
2021/04/11 05:23:00;;;;;;;7.57;1.95;;;;;;;14.26;47.71;101847.50;5058932;28;20572;-71
2021/04/11 05:25:35;;;;;;;4.05;1.88;;;;;;;14.51;47.13;101855.94;5058305;28;20029;-72
2021/04/11 05:28:07;;;;;;;4.75;1.60;;;;;;;14.84;46.15;101845.84;5059533;28;20044;-71
2021/04/11 05:30:40;;;;;;;3.17;1.30;;;;;;;15.13;45.32;101860.50;5054504;28;20033;-72
2021/04/11 05:33:11;;;;;;;6.45;1.55;;;;;;;15.36;44.98;101852.81;5056631;28;20044;-72
2021/04/11 05:35:38;;;;;;;20.48;4.75;;;;;;;15.41;44.88;101850.25;5051035;28;20449;-72
2021/04/11 05:38:19;;;;;;;21.33;4.93;;;;;;;15.55;43.20;101851.34;5062992;28;20127;-72
2021/04/11 05:40:52;;;;;;;6.18;2.65;;;;;;;15.73;42.70;101859.56;5050852;28;20457;-72
2021/04/11 05:43:26;;;;;;;9.43;4.83;;;;;;;15.95;42.34;101861.59;5065005;28;20047;-72
2021/04/11 05:46:04;;;;;;;4.90;2.30;;;;;;;16.17;41.71;101865.38;5067496;28;20029;-72
2021/04/11 05:48:37;;;;;;;5.93;1.85;;;;;;;16.30;41.61;101872.63;5053183;28;20454;-72
2021/04/11 05:51:11;;;;;;;5.03;1.90;;;;;;;16.46;41.86;101865.69;5050774;28;20037;-72
2021/04/11 05:53:42;;;;;;;4.30;1.75;;;;;;;16.63;41.42;101856.06;5042519;28;20053;-72
2021/04/11 05:56:14;;;;;;;8.75;2.38;;;;;;;16.76;40.58;101849.06;5042331;28;20116;-72
2021/04/11 05:58:46;;;;;;;5.10;1.80;;;;;;;16.88;39.98;101866.94;5047377;28;20043;-72
2021/04/11 06:01:18;;;;;;;5.68;2.42;;;;;;;16.88;39.49;101859.81;5050108;28;20120;-72
2021/04/11 06:03:52;;;;;;;3.70;1.40;;;;;;;17.06;39.57;101869.75;5050291;28;20070;-72
2021/04/11 06:06:23;;;;;;;3.47;1.40;;;;;;;17.25;38.42;101878.78;5050350;28;20071;-72
2021/04/11 06:09:00;;;;;;;3.45;1.42;;;;;;;17.34;37.97;101877.03;5050248;28;20471;-72
2021/04/11 06:11:38;;;;;;;5.03;1.73;;;;;;;17.45;37.68;101877.09;5049653;28;20410;-72
2021/04/11 06:14:10;;;;;;;3.13;1.70;;;;;;;17.63;37.49;101873.66;5049448;28;20051;-72
2021/04/11 06:16:39;;;;;;;6.47;2.05;;;;;;;17.66;36.73;101866.53;5040364;28;20115;-72
2021/04/11 06:19:08;;;;;;;7.75;2.67;;;;;;;17.69;36.29;101877.25;5049360;28;20037;-71
2021/04/11 06:21:45;;;;;;;2.80;1.20;;;;;;;17.91;35.80;101880.91;5050127;28;20112;-72
2021/04/11 06:24:23;;;;;;;3.17;1.60;;;;;;;18.01;35.22;101876.47;5050289;28;20063;-72
2021/04/11 06:27:02;;;;;;;1.85;0.90;;;;;;;18.16;35.05;101881.88;5032655;28;20607;-73
2021/04/11 06:29:34;;;;;;;2.92;1.10;;;;;;;18.20;34.36;101876.53;5031263;28;20538;-72
2021/04/11 06:32:07;;;;;;;2.67;1.30;;;;;;;18.41;33.73;101888.16;5049083;28;20041;-72
2021/04/11 06:34:40;;;;;;;4.28;1.48;;;;;;;18.66;33.65;101885.53;5048071;28;20090;-72
2021/04/11 06:37:15;;;;;;;3.60;1.30;;;;;;;18.73;32.55;101878.41;5056368;28;20039;-72
2021/04/11 06:39:46;;;;;;;8.10;1.20;;;;;;;18.73;32.48;101889.09;5050599;28;20313;-72
2021/04/11 06:42:46;;;;;;;7.07;2.10;;;;;;;18.87;32.68;101883.75;5050098;28;20067;-72
2021/04/11 06:45:18;;;;;;;6.05;2.30;;;;;;;19.17;33.16;101885.50;5030216;28;20065;-73
2021/04/11 06:48:19;;;;;;;5.97;2.40;;;;;;;19.34;32.29;101891.72;5047470;28;20516;-72
2021/04/11 06:51:15;;;;;;;3.63;1.70;;;;;;;19.45;32.35;101889.91;5030180;28;20813;-73
2021/04/11 06:53:57;;;;;;;5.20;2.35;;;;;;;19.58;32.34;101889.00;5048592;28;20560;-73
2021/04/11 06:56:42;;;;;;;4.47;1.27;;;;;;;19.62;32.20;101892.56;5074558;28;20127;-72
2021/04/11 06:59:19;;;;;;;8.23;3.30;;;;;;;19.60;31.82;101889.91;5053156;28;20510;-72
2021/04/11 07:02:31;;;;;;;6.75;1.98;;;;;;;19.43;31.64;101903.28;5050624;28;20049;-72
2021/04/11 07:05:12;;;;;;;7.68;2.28;;;;;;;19.10;31.93;101898.88;5051297;28;20056;-72
2021/04/11 07:08:15;;;;;;;7.93;3.97;;;;;;;19.08;33.05;101898.00;5033060;28;20052;-72
2021/04/11 07:11:04;;;;;;;3.90;1.83;;;;;;;19.14;32.79;101891.75;5072980;28;20132;-73
2021/04/11 07:14:09;;;;;;;6.80;1.73;;;;;;;19.42;32.60;101884.56;5063801;28;20144;-73
2021/04/11 07:16:56;;;;;;;;;;;;;;;19.42;32.64;101900.63;5054276;28;20037;-73
2021/04/11 07:19:45;;;;;;;7.93;2.65;;;;;;;19.56;32.62;101892.59;5048395;28;19920;-72
2021/04/11 07:22:45;;;;;;;12.50;5.15;;;;;;;19.47;32.58;101890.81;5053525;28;20140;-73
2021/04/11 07:25:24;;;;;;;6.03;2.95;;;;;;;19.71;33.24;101890.75;5059347;28;20124;-73
2021/04/11 07:28:10;;;;;;;8.10;3.88;;;;;;;20.03;33.12;101895.06;5033536;28;20116;-73
2021/04/11 07:30:46;;;;;;;5.43;2.30;;;;;;;20.17;32.47;101893.19;5062256;28;20577;-72
2021/04/11 07:33:56;;;;;;;10.38;2.92;;;;;;;20.34;32.01;101893.16;5057572;28;20628;-74
2021/04/11 07:36:55;;;;;;;7.20;2.38;;;;;;;20.30;32.01;101892.22;5050454;28;20033;-74
2021/04/11 07:39:45;;;;;;;5.18;2.05;;;;;;;19.81;32.72;101905.91;5054498;28;20079;-72
2021/04/11 07:42:52;;;;;;;4.78;2.13;;;;;;;20.06;32.82;101898.63;5048034;28;20033;-72
2021/04/11 07:45:37;;;;;;;9.20;2.65;;;;;;;20.01;33.17;101907.59;5050098;28;20045;-73
2021/04/11 07:48:22;;;;;;;6.85;2.10;;;;;;;19.90;33.65;101904.94;5037682;28;20135;-74
2021/04/11 07:51:07;;;;;;;6.93;2.17;;;;;;;20.23;33.63;101914.59;5037631;28;20057;-73
2021/04/11 07:53:54;;;;;;;7.85;2.20;;;;;;;20.61;32.86;101923.34;5056433;28;20055;-72
2021/04/11 07:56:37;;;;;;;5.32;2.45;;;;;;;20.75;31.73;101901.75;5051857;28;20108;-72
2021/04/11 07:59:21;;;;;;;5.30;2.65;;;;;;;20.72;31.42;101903.59;5040921;28;20048;-73
2021/04/11 08:02:16;;;;;;;6.20;1.90;;;;;;;20.88;31.75;101907.91;5050914;28;20490;-73
2021/04/11 08:05:25;;;;;;;3.70;1.73;;;;;;;21.03;31.91;101908.69;5052976;28;20290;-73
2021/04/11 08:08:28;;;;;;;9.15;1.50;;;;;;;20.97;31.98;101923.97;5011878;28;20138;-73
2021/04/11 08:11:19;;;;;;;3.85;1.27;;;;;;;20.95;32.27;101923.06;5003492;28;20045;-74
2021/04/11 08:13:59;;;;;;;6.38;2.08;;;;;;;20.67;32.40;101915.28;5050672;28;20128;-74
2021/04/11 08:16:49;;;;;;;7.10;2.08;;;;;;;20.76;32.09;101916.06;5049849;28;20051;-75
2021/04/11 08:19:41;;;;;;;8.70;2.47;;;;;;;21.15;31.96;101915.72;5051408;28;20115;-74
2021/04/11 08:22:21;;;;;;;3.75;1.85;;;;;;;21.50;32.12;101925.28;5016365;28;20052;-74
2021/04/11 08:25:03;;;;;;;5.90;2.30;;;;;;;21.50;32.02;101907.34;5052202;28;20106;-74
2021/04/11 08:28:11;;;;;;;10.10;3.00;;;;;;;21.03;32.34;101915.84;5052478;28;20068;-74
2021/04/11 08:30:54;;;;;;;5.28;1.80;;;;;;;21.09;32.30;101915.78;5050804;28;20128;-75
2021/04/11 08:34:06;;;;;;;4.30;1.67;;;;;;;21.03;32.34;101929.28;5052258;28;20045;-74
2021/04/11 08:37:06;;;;;;;7.05;1.88;;;;;;;21.47;32.19;101918.13;5013133;28;20111;-74
2021/04/11 08:40:04;;;;;;;9.43;3.97;;;;;;;21.68;32.01;101914.31;5052794;28;20045;-74
2021/04/11 08:43:04;;;;;;;12.45;3.13;;;;;;;21.47;32.11;101900.22;5032511;28;20042;-74
2021/04/11 08:45:49;;;;;;;9.43;3.58;;;;;;;21.40;32.92;101890.44;5032283;28;20047;-74
2021/04/11 08:48:41;;;;;;;7.28;2.40;;;;;;;21.36;32.59;101909.28;5032129;28;20116;-75
2021/04/11 08:51:15;;;;;;;4.40;1.90;;;;;;;21.25;32.93;101906.72;5031819;28;20155;-74
2021/04/11 08:53:53;;;;;;;4.90;2.10;;;;;;;21.66;32.90;101908.94;5047640;28;20135;-75
2021/04/11 08:56:26;;;;;;;10.95;6.38;;;;;;;21.41;33.18;101916.41;5071836;28;20393;-75
2021/04/11 08:59:02;;;;;;;32.03;17.30;;;;;;;21.76;33.27;101910.63;5055091;28;20099;-74
2021/04/11 09:01:57;;;;;;;15.95;7.82;;;;;;;22.02;32.74;101891.50;5082130;28;20036;-75
2021/04/11 09:04:34;;;;;;;5.50;2.80;;;;;;;21.81;32.88;101899.81;5090398;28;20063;-74
2021/04/11 09:07:14;;;;;;;5.30;2.05;;;;;;;21.77;32.87;101892.72;5091241;28;20052;-74
2021/04/11 09:10:05;;;;;;;6.40;1.90;;;;;;;21.30;33.13;101904.00;5091642;28;20036;-74
2021/04/11 09:12:42;;;;;;;6.38;1.65;;;;;;;21.31;33.27;101911.16;5088380;28;20515;-74
2021/04/11 09:15:21;;;;;;;4.68;1.30;;;;;;;21.26;33.45;101913.00;5081851;28;20409;-74
2021/04/11 09:18:26;;;;;;;5.57;1.52;;;;;;;21.24;33.35;101896.88;5071456;28;20043;-74
2021/04/11 09:21:15;;;;;;;;;;;;;;;21.32;33.16;101883.38;5061443;28;20045;-74
2021/04/11 09:23:50;;;;;;;3.03;1.50;;;;;;;21.68;33.34;101904.44;5069569;28;19927;-76
2021/04/11 09:26:44;;;;;;;4.53;1.77;;;;;;;21.59;33.63;101904.59;5060469;28;20071;-76
2021/04/11 09:29:13;;;;;;;5.18;2.38;;;;;;;21.50;33.91;101901.97;5068902;28;20200;-80
2021/04/11 09:31:58;;;;;;;6.70;2.70;;;;;;;21.44;33.95;101902.06;5070317;28;20059;-77
2021/04/11 09:34:59;;;;;;;4.28;2.13;;;;;;;20.94;34.27;101889.06;5068633;28;20093;-74
2021/04/11 09:38:03;;;;;;;4.28;1.95;;;;;;;20.79;34.91;101903.53;5069851;28;20033;-76
2021/04/11 09:40:46;;;;;;;13.77;3.10;;;;;;;20.92;34.67;101899.84;5046396;28;20051;-75
2021/04/11 09:43:43;;;;;;;5.18;1.70;;;;;;;20.45;33.77;101902.91;5059461;28;20036;-77
2021/04/11 09:46:42;;;;;;;4.57;1.92;;;;;;;20.58;33.50;101896.53;5056479;28;20145;-76
2021/04/11 09:49:35;;;;;;;5.85;2.08;;;;;;;20.64;33.47;101893.81;5070326;28;20032;-73
2021/04/11 09:52:40;;;;;;;4.60;1.60;;;;;;;21.06;33.25;101889.00;5069203;28;20123;-75
2021/04/11 09:55:19;;;;;;;4.15;1.70;;;;;;;21.29;32.97;101868.16;5067428;28;20045;-75
2021/04/11 09:58:03;;;;;;;5.10;2.22;;;;;;;20.68;33.19;101879.44;5069273;28;20048;-75
2021/04/11 10:00:36;;;;;;;5.13;1.52;;;;;;;20.45;33.62;101885.91;5069605;28;20413;-77
2021/04/11 10:03:23;;;;;;;5.72;1.63;;;;;;;20.79;32.91;101868.66;5069111;28;20120;-76
2021/04/11 10:06:00;;;;;;;3.63;1.40;;;;;;;21.10;32.30;101879.97;5067830;28;20068;-78
2021/04/11 10:08:57;;;;;;;7.15;2.60;;;;;;;21.43;32.05;101876.97;5069793;28;20037;-77
2021/04/11 10:11:34;;;;;;;2.65;1.50;;;;;;;21.50;31.82;101896.59;5070165;28;20143;-77
2021/04/11 10:14:13;;;;;;;7.18;2.83;;;;;;;21.45;31.84;101902.03;5069181;28;20041;-77
2021/04/11 10:16:52;;;;;;;4.78;1.70;;;;;;;21.42;31.34;101895.78;5070219;28;20128;-77
2021/04/11 10:19:35;;;;;;;4.72;1.45;;;;;;;21.54;31.51;101882.22;5057304;28;20040;-76
2021/04/11 10:22:24;;;;;;;3.97;1.65;;;;;;;21.57;32.00;101889.38;5052491;28;20037;-77
2021/04/11 10:25:03;;;;;;;5.75;1.58;;;;;;;21.54;31.71;101881.31;5070484;28;20079;-78
2021/04/11 10:27:38;;;;;;;5.32;1.80;;;;;;;21.64;32.07;101893.75;5072269;28;20036;-77
2021/04/11 10:30:09;;;;;;;7.38;2.55;;;;;;;21.36;32.57;101906.63;5056127;28;20131;-78
2021/04/11 10:32:43;;;;;;;4.55;1.70;;;;;;;21.19;32.79;101900.53;5072872;28;20052;-77
2021/04/11 10:35:17;;;;;;;6.35;2.30;;;;;;;21.40;33.09;101895.81;5067416;28;20615;-78
2021/04/11 10:37:48;;;;;;;6.30;2.17;;;;;;;21.67;32.50;101891.91;5073733;28;20508;-77
2021/04/11 10:40:53;;;;;;;6.30;1.90;;;;;;;21.26;32.70;101897.78;5056138;28;20032;-76
2021/04/11 10:43:51;;;;;;;7.07;2.05;;;;;;;21.22;33.05;101887.06;5030836;28;20068;-76
2021/04/11 10:46:23;;;;;;;3.13;1.50;;;;;;;21.42;32.89;101893.09;5063850;28;20040;-77
2021/04/11 10:49:10;;;;;;;6.25;1.77;;;;;;;21.48;33.31;101899.31;5056637;28;20033;-79
2021/04/11 10:52:19;;;;;;;4.22;1.75;;;;;;;21.44;33.67;101897.56;5073941;28;20038;-77
2021/04/11 10:55:14;;;;;;;4.60;1.48;;;;;;;21.29;32.92;101900.41;5073493;28;20048;-77
2021/04/11 10:58:13;;;;;;;6.32;2.40;;;;;;;21.22;32.69;101893.31;5071872;28;20044;-77
2021/04/11 11:00:46;;;;;;;4.15;1.98;;;;;;;21.20;32.24;101895.13;5068653;28;20036;-77
2021/04/11 11:03:34;;;;;;;4.53;2.17;;;;;;;21.24;32.77;101878.09;5071730;28;20029;-76
2021/04/11 11:06:19;;;;;;;4.25;1.73;;;;;;;21.30;33.04;101874.44;5071881;28;20116;-76
2021/04/11 11:09:07;;;;;;;4.45;1.90;;;;;;;21.47;33.57;101867.06;5072168;28;20048;-77
2021/04/11 11:12:08;;;;;;;6.28;2.20;;;;;;;21.50;33.29;101871.53;5073237;28;20095;-76
2021/04/11 11:14:54;;;;;;;6.55;1.70;;;;;;;21.61;33.41;101872.28;5073742;28;20064;-76
2021/04/11 11:17:49;;;;;;;5.15;1.58;;;;;;;21.82;32.16;101878.28;5073596;28;20106;-76
2021/04/11 11:20:24;;;;;;;4.35;1.55;;;;;;;21.94;31.98;101887.09;5073687;28;20118;-77
2021/04/11 11:23:07;;;;;;;5.70;2.45;;;;;;;22.11;32.00;101885.13;5073470;28;20136;-76
2021/04/11 11:25:53;;;;;;;7.25;1.80;;;;;;;22.15;31.43;101886.84;5073193;28;20062;-77
2021/04/11 11:28:51;;;;;;;4.70;2.13;;;;;;;22.03;32.05;101890.59;5074014;28;20035;-78
2021/04/11 11:31:37;;;;;;;5.55;2.05;;;;;;;22.31;31.95;101885.72;5057886;28;20043;-78
2021/04/11 11:34:27;;;;;;;3.50;1.55;;;;;;;22.30;30.70;101886.63;5072813;28;20040;-78
2021/04/11 11:37:10;;;;;;;3.88;1.92;;;;;;;22.38;30.65;101883.84;5055952;28;20127;-78
2021/04/11 11:39:43;;;;;;;4.15;2.17;;;;;;;22.48;30.70;101880.06;5071758;28;20520;-77
2021/04/11 11:42:29;;;;;;;4.75;2.08;;;;;;;22.57;30.34;101872.75;5073570;28;20509;-77
2021/04/11 11:45:06;;;;;;;7.57;2.10;;;;;;;22.58;30.10;101874.50;5073360;28;20029;-77
2021/04/11 11:47:41;;;;;;;2.88;1.40;;;;;;;22.52;29.83;101860.25;5055602;28;20048;-77
2021/04/11 11:50:15;;;;;;;3.70;1.70;;;;;;;22.25;30.43;101856.22;5055168;28;20044;-77
2021/04/11 11:52:50;;;;;;;3.85;1.50;;;;;;;22.29;30.29;101862.44;5072588;28;20043;-78
2021/04/11 11:55:23;;;;;;;5.82;1.90;;;;;;;22.48;30.12;101861.22;5052172;28;20045;-77
2021/04/11 11:57:58;;;;;;;4.25;1.70;;;;;;;22.21;30.71;101868.81;5051976;28;20098;-78
2021/04/11 12:00:29;;;;;;;5.80;2.30;;;;;;;22.49;30.79;101844.19;5052665;28;20041;-77
2021/04/11 12:03:13;;;;;;;5.05;1.58;;;;;;;22.59;30.34;101854.75;5073102;28;20029;-77
2021/04/11 12:05:48;;;;;;;6.63;1.40;;;;;;;22.68;30.36;101842.97;5073363;28;20048;-75
2021/04/11 12:08:19;;;;;;;;;;;;;;;22.84;29.88;101857.94;5073082;28;20494;-77
2021/04/11 12:10:57;;;;;;;3.58;1.77;;;;;;;22.82;29.31;101840.94;5072447;28;19920;-76
2021/04/11 12:13:34;;;;;;;2.95;2.10;;;;;;;22.87;28.19;101854.31;5071142;28;20446;-76
2021/04/11 12:16:07;;;;;;;4.18;1.52;;;;;;;22.74;27.83;101842.88;5071455;28;20045;-76
2021/04/11 12:18:41;;;;;;;5.10;1.90;;;;;;;22.63;27.82;101851.13;5072059;28;20045;-76